Time;durP1;ratioP1;P1;durP2;ratioP2;P2;SDS_P1;SDS_P2;PMS_P1;PMS_P2;Temp;Humidity;BMP_temperature;BMP_pressure;BME280_temperature;BME280_humidity;BME280_pressure;Samples;Min_cycle;Max_cycle;Signal;HPM_P1;HPM_P2
2023/06/06 00:00:30;;;;;;;8.52;4.35;;;;;;;15.34;76.64;96522.94;5021717;28;20041;-69
2023/06/06 00:02:56;;;;;;;6.15;3.97;;;;;;;15.48;76.16;96525.63;5020950;28;20055;-70
2023/06/06 00:05:25;;;;;;;7.13;3.80;;;;;;;15.56;75.90;96525.59;5017409;28;20073;-68
2023/06/06 00:08:05;;;;;;;7.15;4.25;;;;;;;15.34;77.72;96522.16;5017693;28;20128;-68
2023/06/06 00:10:30;;;;;;;8.38;4.22;;;;;;;15.20;79.54;96523.03;5020637;28;20044;-69
2023/06/06 00:12:56;;;;;;;8.30;5.07;;;;;;;15.16;80.79;96514.75;5024469;28;20033;-69
2023/06/06 00:15:21;;;;;;;7.80;5.10;;;;;;;15.11;82.84;96509.66;5019964;28;20641;-69
2023/06/06 00:17:48;;;;;;;7.30;4.70;;;;;;;15.03;85.22;96514.41;5024827;28;20053;-69
2023/06/06 00:20:14;;;;;;;8.07;5.25;;;;;;;14.87;87.59;96514.88;5035800;28;20471;-69
2023/06/06 00:22:40;;;;;;;8.23;5.22;;;;;;;14.84;90.64;96506.63;5022189;28;20052;-69
2023/06/06 00:25:06;;;;;;;12.38;6.20;;;;;;;14.79;93.11;96512.53;5019480;28;20052;-70
2023/06/06 00:27:36;;;;;;;10.27;5.80;;;;;;;14.76;95.09;96514.09;5024693;28;20596;-69
2023/06/06 00:30:03;;;;;;;8.43;5.80;;;;;;;14.72;96.94;96510.59;5024538;28;20041;-69
2023/06/06 00:32:28;;;;;;;10.55;5.75;;;;;;;14.66;98.22;96510.22;5021946;28;20132;-70
2023/06/06 00:34:55;;;;;;;9.00;5.80;;;;;;;14.62;99.80;96508.63;5024452;28;20136;-74
2023/06/06 00:37:20;;;;;;;10.15;6.07;;;;;;;14.60;100.00;96513.75;5021971;28;20045;-69
2023/06/06 00:39:45;;;;;;;8.30;5.93;;;;;;;14.58;100.00;96511.41;5025523;28;20033;-69
2023/06/06 00:42:11;;;;;;;10.18;6.25;;;;;;;14.59;100.00;96512.97;5036675;28;20095;-69
2023/06/06 00:44:36;;;;;;;8.20;5.85;;;;;;;14.61;100.00;96505.09;5023966;28;20037;-70
2023/06/06 00:47:02;;;;;;;10.38;6.10;;;;;;;14.71;100.00;96506.25;5023017;28;20037;-69
2023/06/06 00:49:27;;;;;;;8.38;5.90;;;;;;;14.66;100.00;96509.44;5022472;28;20037;-69
2023/06/06 00:51:54;;;;;;;8.18;5.85;;;;;;;14.67;100.00;96511.75;5041251;28;20124;-69
2023/06/06 00:54:21;;;;;;;8.27;6.20;;;;;;;14.71;100.00;96500.72;5018958;28;20136;-69
2023/06/06 00:56:49;;;;;;;12.15;6.13;;;;;;;14.70;100.00;96516.50;5023758;28;20550;-69
2023/06/06 00:59:15;;;;;;;10.27;6.10;;;;;;;14.77;100.00;96512.16;5018793;28;20465;-69
2023/06/06 01:01:42;;;;;;;8.80;6.53;;;;;;;14.77;100.00;96506.66;5023834;28;20401;-68
2023/06/06 01:04:10;;;;;;;9.32;7.13;;;;;;;14.67;100.00;96509.00;5018236;28;20069;-69
2023/06/06 01:06:37;;;;;;;9.68;6.32;;;;;;;14.70;100.00;96521.22;5023159;28;20041;-69
2023/06/06 01:09:07;;;;;;;9.40;5.57;;;;;;;14.73;100.00;96514.94;5021056;28;20033;-69
2023/06/06 01:11:38;;;;;;;10.52;6.25;;;;;;;14.59;100.00;96517.72;5023667;28;20137;-68
2023/06/06 01:14:13;;;;;;;7.38;6.03;;;;;;;14.45;100.00;96519.28;5018163;28;20038;-68
2023/06/06 01:16:41;;;;;;;9.60;6.65;;;;;;;14.41;100.00;96521.25;5023823;28;20044;-69
2023/06/06 01:19:16;;;;;;;8.68;6.47;;;;;;;14.39;100.00;96520.09;5017346;28;20048;-67
2023/06/06 01:21:41;;;;;;;10.15;6.18;;;;;;;14.28;100.00;96525.63;5022874;28;20053;-69
2023/06/06 01:24:08;;;;;;;8.50;6.30;;;;;;;14.21;100.00;96533.88;5017880;28;20137;-69
2023/06/06 01:26:34;;;;;;;9.43;6.45;;;;;;;14.18;100.00;96535.44;5022632;28;20033;-69
2023/06/06 01:28:59;;;;;;;9.02;6.25;;;;;;;14.19;100.00;96530.72;5025222;28;20048;-68
2023/06/06 01:31:32;;;;;;;9.00;6.22;;;;;;;14.15;100.00;96538.97;5020342;28;20067;-68
2023/06/06 01:34:06;;;;;;;9.68;6.13;;;;;;;14.12;100.00;96543.31;5023946;28;20033;-68
2023/06/06 01:36:54;;;;;;;9.07;6.25;;;;;;;14.07;100.00;96540.19;5022464;28;20049;-68
2023/06/06 01:39:22;;;;;;;8.90;6.15;;;;;;;14.07;100.00;96542.94;5017996;28;20039;-69
2023/06/06 01:41:51;;;;;;;7.97;5.43;;;;;;;14.15;100.00;96541.72;5037435;28;20042;-68
2023/06/06 01:44:18;;;;;;;;;;;;;;;14.06;100.00;96544.91;5018395;28;20044;-68
2023/06/06 01:46:43;;;;;;;7.95;5.95;;;;;;;14.03;100.00;96550.41;5022898;28;19920;-68
2023/06/06 01:49:10;;;;;;;8.85;5.53;;;;;;;14.01;100.00;96547.25;5017814;28;20061;-68
2023/06/06 01:51:36;;;;;;;8.52;5.82;;;;;;;13.99;100.00;96546.84;5021015;28;20409;-69
2023/06/06 01:54:02;;;;;;;10.75;5.93;;;;;;;13.93;100.00;96547.22;5021610;28;20038;-68
2023/06/06 01:56:28;;;;;;;8.88;5.85;;;;;;;13.85;100.00;96553.16;5019959;28;20132;-68
2023/06/06 01:58:53;;;;;;;7.95;5.00;;;;;;;13.81;100.00;96555.09;5028063;28;20049;-68
2023/06/06 02:01:18;;;;;;;9.90;5.97;;;;;;;13.79;100.00;96562.97;5022135;28;20042;-68
2023/06/06 02:03:44;;;;;;;8.48;5.25;;;;;;;13.77;100.00;96563.34;5023909;28;20055;-68
2023/06/06 02:06:10;;;;;;;7.95;5.28;;;;;;;13.72;100.00;96563.72;5016072;28;20501;-68
2023/06/06 02:08:35;;;;;;;9.65;5.35;;;;;;;13.70;100.00;96561.38;5022523;28;20095;-68
2023/06/06 02:11:00;;;;;;;7.82;5.32;;;;;;;13.67;100.00;96564.13;5022188;28;20068;-68
2023/06/06 02:13:26;;;;;;;7.53;5.38;;;;;;;13.57;100.00;96569.19;5017197;28;20483;-68
2023/06/06 02:15:52;;;;;;;8.48;5.18;;;;;;;13.58;100.00;96570.78;5022742;28;20049;-68
2023/06/06 02:18:17;;;;;;;10.02;5.50;;;;;;;13.52;100.00;96569.59;5016981;28;20068;-69
2023/06/06 02:20:42;;;;;;;8.65;5.63;;;;;;;13.55;100.00;96573.53;5021840;28;20044;-69
2023/06/06 02:23:08;;;;;;;7.47;5.18;;;;;;;13.53;100.00;96573.91;5016810;28;20037;-67
2023/06/06 02:25:37;;;;;;;8.75;5.60;;;;;;;13.56;100.00;96570.38;5022688;28;20076;-69
2023/06/06 02:28:03;;;;;;;11.97;6.27;;;;;;;13.57;100.00;96576.66;5020227;28;20509;-68
2023/06/06 02:30:29;;;;;;;7.55;5.35;;;;;;;13.55;100.00;96570.78;5021774;28;20052;-69
2023/06/06 02:32:56;;;;;;;7.50;5.38;;;;;;;13.52;100.00;96566.84;5022708;28;20124;-69
2023/06/06 02:35:21;;;;;;;9.23;5.57;;;;;;;13.51;100.00;96568.00;5018535;28;21335;-69
2023/06/06 02:37:47;;;;;;;7.50;5.68;;;;;;;13.43;100.00;96566.41;5025459;28;20048;-69
2023/06/06 02:40:13;;;;;;;7.50;5.28;;;;;;;13.31;100.00;96569.53;5023264;28;20033;-69
2023/06/06 02:42:39;;;;;;;8.85;5.95;;;;;;;13.27;100.00;96572.25;5021208;28;20041;-69
2023/06/06 02:45:09;;;;;;;8.63;6.55;;;;;;;13.21;100.00;96565.53;5016535;28;20053;-67
2023/06/06 02:47:34;;;;;;;10.63;6.20;;;;;;;13.24;100.00;96570.25;5022701;28;20041;-68
2023/06/06 02:50:00;;;;;;;9.50;6.03;;;;;;;13.23;100.00;96571.41;5023753;28;20045;-69
2023/06/06 02:52:26;;;;;;;8.77;6.35;;;;;;;13.15;100.00;96576.13;5016518;28;20046;-69
2023/06/06 02:54:51;;;;;;;7.78;6.25;;;;;;;13.10;100.00;96565.47;5022020;28;20029;-69
2023/06/06 02:57:17;;;;;;;7.45;5.80;;;;;;;13.07;100.00;96570.97;5016186;28;20045;-70
2023/06/06 02:59:42;;;;;;;9.70;5.88;;;;;;;13.10;100.00;96567.44;5019392;28;20548;-69
2023/06/06 03:02:10;;;;;;;10.38;5.53;;;;;;;13.11;100.00;96575.31;5015750;28;20130;-68
2023/06/06 03:04:35;;;;;;;8.70;5.85;;;;;;;13.09;100.00;96579.59;5020689;28;20045;-68
2023/06/06 03:07:01;;;;;;;8.00;6.13;;;;;;;13.09;100.00;96574.91;5021694;28;20120;-68
2023/06/06 03:09:27;;;;;;;10.23;5.72;;;;;;;13.03;100.00;96589.41;5016973;28;20041;-68
2023/06/06 03:11:53;;;;;;;6.93;5.22;;;;;;;13.05;100.00;96579.59;5020999;28;20509;-68
2023/06/06 03:14:18;;;;;;;8.07;5.53;;;;;;;12.95;100.00;96588.59;5016775;28;20386;-68
2023/06/06 03:16:46;;;;;;;9.07;5.93;;;;;;;12.91;100.00;96583.06;5021357;28;20041;-68
2023/06/06 03:19:12;;;;;;;7.85;5.68;;;;;;;12.92;100.00;96586.59;5016238;28;20089;-67
2023/06/06 03:21:38;;;;;;;9.43;6.25;;;;;;;12.92;100.00;96590.13;5021755;28;20073;-68
2023/06/06 03:24:04;;;;;;;8.93;5.78;;;;;;;12.90;100.00;96583.47;5018350;28;20044;-68
2023/06/06 03:26:31;;;;;;;8.73;6.10;;;;;;;12.87;100.00;96587.75;5018723;28;20053;-68
2023/06/06 03:28:57;;;;;;;10.52;5.82;;;;;;;12.91;100.00;96588.56;5020961;28;20041;-69
2023/06/06 03:31:23;;;;;;;7.30;5.53;;;;;;;12.82;100.00;96590.88;5015446;28;20199;-68
2023/06/06 03:33:52;;;;;;;11.00;6.53;;;;;;;12.79;100.00;96588.91;5021115;28;20040;-69
2023/06/06 03:36:17;;;;;;;7.72;5.55;;;;;;;12.79;100.00;96594.38;5016108;28;20042;-68
2023/06/06 03:38:43;;;;;;;7.65;6.35;;;;;;;12.80;100.00;96595.94;5021965;28;20044;-68
2023/06/06 03:41:08;;;;;;;8.75;5.85;;;;;;;12.76;100.00;96601.44;5017117;28;20498;-68
2023/06/06 03:43:35;;;;;;;8.13;5.82;;;;;;;12.76;100.00;96595.94;5020249;28;20052;-68
2023/06/06 03:46:00;;;;;;;9.32;5.93;;;;;;;12.76;100.00;96603.41;5023181;28;20502;-68
2023/06/06 03:48:26;;;;;;;7.70;5.97;;;;;;;12.78;100.00;96598.28;5019242;28;20045;-68
2023/06/06 03:50:52;;;;;;;7.68;5.85;;;;;;;12.76;100.00;96600.66;5025353;28;20482;-67
2023/06/06 03:53:17;;;;;;;9.95;6.03;;;;;;;12.75;100.00;96602.63;5018639;28;20783;-68
2023/06/06 03:55:44;;;;;;;8.15;5.72;;;;;;;12.72;100.00;96608.09;5025546;28;20049;-68
2023/06/06 03:58:10;;;;;;;7.80;5.75;;;;;;;12.70;100.00;96608.47;5020194;28;20487;-68
2023/06/06 04:00:37;;;;;;;8.75;6.30;;;;;;;12.66;100.00;96610.41;5024576;28;20089;-68
2023/06/06 04:03:03;;;;;;;10.45;6.18;;;;;;;12.71;100.00;96614.75;5022440;28;20038;-69
2023/06/06 04:05:32;;;;;;;10.90;5.72;;;;;;;12.73;100.00;96612.41;5024180;28;20100;-68
2023/06/06 04:07:58;;;;;;;8.13;5.90;;;;;;;12.84;100.00;96606.97;5024528;28;20037;-68
2023/06/06 04:10:24;;;;;;;6.85;5.28;;;;;;;12.93;100.00;96610.97;5020333;28;20682;-67
2023/06/06 04:12:51;;;;;;;7.05;5.53;;;;;;;12.94;100.00;96606.25;5024164;28;20386;-67
2023/06/06 04:15:17;;;;;;;10.43;5.60;;;;;;;12.94;100.00;96604.28;5035682;28;20037;-67
2023/06/06 04:17:42;;;;;;;8.40;5.70;;;;;;;12.97;100.00;96600.00;5024934;28;20052;-69
2023/06/06 04:20:08;;;;;;;8.45;5.40;;;;;;;13.06;100.00;96605.16;5019317;28;20558;-68
2023/06/06 04:22:35;;;;;;;8.23;5.82;;;;;;;13.08;100.00;96600.81;5023913;28;20067;-68
2023/06/06 04:25:00;;;;;;;10.85;5.70;;;;;;;13.13;100.00;96614.22;5024067;28;20049;-68
2023/06/06 04:27:26;;;;;;;10.13;5.93;;;;;;;13.18;100.00;96608.34;5019267;28;20045;-68
2023/06/06 04:29:52;;;;;;;7.35;5.40;;;;;;;13.25;100.00;96615.81;5024564;28;20393;-68
2023/06/06 04:32:21;;;;;;;9.18;5.57;;;;;;;13.25;100.00;96609.53;5018851;28;20128;-68
2023/06/06 04:34:47;;;;;;;9.30;5.77;;;;;;;13.31;100.00;96617.06;5025392;28;20056;-68
2023/06/06 04:37:17;;;;;;;9.40;5.10;;;;;;;13.35;100.00;96612.38;5020559;28;20053;-68
2023/06/06 04:39:43;;;;;;;8.27;5.72;;;;;;;13.50;100.00;96612.41;5024359;28;20040;-68
2023/06/06 04:42:08;;;;;;;8.02;5.35;;;;;;;13.47;100.00;96624.19;5020338;28;20397;-68
2023/06/06 04:44:41;;;;;;;8.18;5.85;;;;;;;13.72;100.00;96616.03;5023691;28;20038;-68
2023/06/06 04:47:08;;;;;;;8.35;5.38;;;;;;;13.79;100.00;96620.75;5018803;28;20045;-69
2023/06/06 04:49:38;;;;;;;8.45;5.47;;;;;;;14.10;100.00;96628.31;5023106;28;20048;-68
2023/06/06 04:52:05;;;;;;;5.85;4.43;;;;;;;14.91;100.00;96623.19;5020344;28;20418;-68
2023/06/06 04:54:33;;;;;;;9.40;5.00;;;;;;;16.12;99.83;96627.84;5023694;28;20048;-68
2023/06/06 04:57:00;;;;;;;9.05;5.00;;;;;;;16.12;100.00;96625.84;5023802;28;20494;-68
2023/06/06 04:59:27;;;;;;;7.35;5.35;;;;;;;17.00;94.07;96625.53;5020151;28;20103;-68
2023/06/06 05:01:55;;;;;;;8.70;4.88;;;;;;;17.17;89.63;96623.00;5023867;28;20132;-70
2023/06/06 05:04:20;;;;;;;10.60;4.60;;;;;;;18.32;82.51;96629.84;5019764;28;20652;-69
2023/06/06 05:06:46;;;;;;;7.13;4.60;;;;;;;17.83;84.41;96632.09;5023067;28;20065;-69
2023/06/06 05:09:12;;;;;;;7.88;4.57;;;;;;;16.96;90.76;96629.53;5018943;28;20041;-69
2023/06/06 05:11:37;;;;;;;7.65;4.57;;;;;;;16.77;90.84;96628.09;5023583;28;20049;-67
2023/06/06 05:14:03;;;;;;;6.93;4.60;;;;;;;15.81;98.00;96633.13;5020732;28;20452;-68
2023/06/06 05:16:29;;;;;;;9.32;4.22;;;;;;;17.18;93.21;96625.34;5020798;28;20052;-67
2023/06/06 05:18:54;;;;;;;6.30;4.68;;;;;;;16.46;93.61;96633.50;5023472;28;20049;-69
2023/06/06 05:21:20;;;;;;;8.73;5.40;;;;;;;16.20;94.23;96621.84;5017962;28;20160;-69
2023/06/06 05:23:46;;;;;;;7.55;5.07;;;;;;;16.62;92.60;96630.22;5022880;28;20099;-68
2023/06/06 05:26:12;;;;;;;5.85;4.32;;;;;;;18.09;85.41;96636.13;5017442;28;20041;-68
2023/06/06 05:28:38;;;;;;;7.40;5.13;;;;;;;16.80;89.98;96638.38;5023393;28;20033;-68
2023/06/06 05:31:07;;;;;;;6.18;4.88;;;;;;;16.50;92.20;96644.53;5019243;28;20065;-69
2023/06/06 05:33:33;;;;;;;7.43;5.22;;;;;;;17.02;91.32;96633.44;5022894;28;20552;-67
2023/06/06 05:35:59;;;;;;;9.07;4.93;;;;;;;17.21;89.27;96640.34;5023618;28;20057;-68
2023/06/06 05:38:25;;;;;;;8.45;4.75;;;;;;;16.99;90.21;96637.78;5019122;28;20073;-68
2023/06/06 05:40:51;;;;;;;6.72;4.70;;;;;;;18.08;83.68;96651.97;5022985;28;20378;-69
2023/06/06 05:43:16;;;;;;;5.97;4.38;;;;;;;19.61;76.57;96649.78;5017356;28;20088;-69
2023/06/06 05:45:42;;;;;;;6.07;4.63;;;;;;;18.84;74.14;96656.38;5022777;28;20119;-69
2023/06/06 05:48:08;;;;;;;7.15;4.65;;;;;;;19.79;70.69;96660.56;5018888;28;20099;-69
2023/06/06 05:50:33;;;;;;;7.38;4.63;;;;;;;18.87;73.60;96661.88;5022357;28;20777;-69
2023/06/06 05:52:59;;;;;;;7.55;4.85;;;;;;;18.99;76.72;96656.91;5021534;28;20052;-68
2023/06/06 05:55:32;;;;;;;5.95;4.38;;;;;;;19.85;72.74;96664.41;5017461;28;20453;-69
2023/06/06 05:57:59;;;;;;;5.65;4.25;;;;;;;19.62;71.11;96661.69;5023479;28;20045;-69
2023/06/06 06:00:26;;;;;;;7.43;4.25;;;;;;;19.21;75.95;96654.53;5017515;28;20538;-69
2023/06/06 06:02:57;;;;;;;14.40;9.55;;;;;;;20.55;68.33;96665.25;5021994;28;20041;-69
2023/06/06 06:05:23;;;;;;;8.40;4.82;;;;;;;21.41;64.42;96664.28;5018189;28;20436;-69
2023/06/06 06:07:49;;;;;;;8.95;4.82;;;;;;;20.25;67.21;96660.75;5023754;28;20088;-68
2023/06/06 06:10:15;;;;;;;7.97;4.85;;;;;;;20.09;68.95;96658.72;5017568;28;20512;-69
2023/06/06 06:12:44;;;;;;;7.95;4.22;;;;;;;18.86;74.50;96668.59;5021997;28;20129;-68
2023/06/06 06:15:10;;;;;;;7.65;4.05;;;;;;;19.33;73.81;96659.44;5016846;28;20040;-68
2023/06/06 06:17:36;;;;;;;8.20;4.47;;;;;;;20.48;68.73;96665.41;5022325;28;20096;-69
2023/06/06 06:20:08;;;;;;;6.35;4.65;;;;;;;21.01;64.23;96665.34;5020998;28;20041;-70
2023/06/06 06:22:37;;;;;;;6.25;4.68;;;;;;;18.58;77.38;96660.72;5021868;28;20034;-69
2023/06/06 06:25:03;;;;;;;7.07;4.60;;;;;;;18.76;75.93;96663.22;5019259;28;20042;-68
2023/06/06 06:27:30;;;;;;;6.70;4.53;;;;;;;19.34;72.71;96669.38;5022661;28;20041;-69
2023/06/06 06:29:56;;;;;;;7.25;5.13;;;;;;;18.89;75.72;96665.00;5021804;28;20584;-69
2023/06/06 06:32:22;;;;;;;10.32;5.15;;;;;;;19.08;74.04;96674.56;5016749;28;22917;-68
2023/06/06 06:34:47;;;;;;;8.05;4.82;;;;;;;18.76;78.65;96666.75;5021191;28;20096;-68
2023/06/06 06:37:13;;;;;;;8.10;5.10;;;;;;;18.18;80.34;96674.41;5016873;28;20095;-69
2023/06/06 06:39:38;;;;;;;7.75;5.47;;;;;;;17.74;83.93;96669.41;5021709;28;20508;-68
2023/06/06 06:42:04;;;;;;;8.13;5.30;;;;;;;17.77;82.99;96676.06;5018740;28;20124;-69
2023/06/06 06:44:29;;;;;;;6.95;5.40;;;;;;;17.68;83.41;96671.06;5021401;28;20047;-68
2023/06/06 06:46:55;;;;;;;9.57;5.25;;;;;;;18.35;81.93;96673.38;5020663;28;20056;-69
2023/06/06 06:49:20;;;;;;;6.63;4.50;;;;;;;18.38;80.20;96680.81;5016912;28;20043;-69
2023/06/06 06:51:47;;;;;;;6.57;4.88;;;;;;;18.39;79.53;96678.84;5021279;28;20044;-68
2023/06/06 06:54:13;;;;;;;8.93;5.40;;;;;;;17.84;80.92;96678.75;5016450;28;20073;-68
2023/06/06 06:56:41;;;;;;;11.00;4.93;;;;;;;17.72;82.67;96679.34;5022044;28;20072;-68
2023/06/06 06:59:08;;;;;;;8.10;4.85;;;;;;;18.46;80.77;96689.84;5020604;28;20383;-69
2023/06/06 07:01:37;;;;;;;8.27;4.10;;;;;;;18.93;77.42;96681.59;5026763;28;20490;-70
2023/06/06 07:04:07;;;;;;;6.82;4.30;;;;;;;19.06;75.81;96688.09;5021459;28;20100;-68
2023/06/06 07:06:36;;;;;;;8.23;4.75;;;;;;;18.82;78.59;96683.75;5021516;28;20049;-69
2023/06/06 07:09:04;;;;;;;8.85;4.35;;;;;;;20.06;71.07;96684.63;5021294;28;20037;-69
2023/06/06 07:11:30;;;;;;;8.40;4.80;;;;;;;18.92;73.56;96688.34;5019958;28;20049;-70
2023/06/06 07:13:56;;;;;;;5.63;3.92;;;;;;;20.33;69.02;96686.41;5020673;28;20045;-69
2023/06/06 07:16:23;;;;;;;6.57;4.57;;;;;;;18.76;74.91;96688.19;5016114;28;20037;-68
2023/06/06 07:18:51;;;;;;;6.32;4.53;;;;;;;18.53;76.48;96696.06;5020665;28;20137;-68
2023/06/06 07:21:18;;;;;;;7.22;4.95;;;;;;;18.62;76.75;96703.84;5018865;28;20048;-69
2023/06/06 07:23:43;;;;;;;11.32;4.75;;;;;;;19.47;74.24;96691.72;5024436;28;20041;-68
2023/06/06 07:26:10;;;;;;;8.07;4.72;;;;;;;19.62;73.81;96687.44;5019098;28;20117;-67
2023/06/06 07:28:35;;;;;;;9.30;5.43;;;;;;;18.39;79.70;96699.03;5025379;28;20095;-70
2023/06/06 07:31:01;;;;;;;7.18;4.47;;;;;;;18.22;81.64;96698.09;5024449;28;20099;-70
2023/06/06 07:33:26;;;;;;;6.72;4.30;;;;;;;19.38;78.26;96694.28;5019500;28;20046;-70
2023/06/06 07:35:51;;;;;;;5.72;4.10;;;;;;;19.86;73.53;96695.75;5026481;28;20466;-69
2023/06/06 07:38:17;;;;;;;5.63;3.83;;;;;;;20.56;68.57;96686.28;5020336;28;20042;-70
2023/06/06 07:40:42;;;;;;;5.70;3.80;;;;;;;20.91;67.32;96688.69;5025465;28;20041;-69
2023/06/06 07:43:08;;;;;;;4.50;3.20;;;;;;;20.56;66.71;96691.84;5021592;28;20048;-69
2023/06/06 07:45:33;;;;;;;5.70;3.35;;;;;;;20.19;67.05;96693.09;5026848;28;20123;-70
2023/06/06 07:47:58;;;;;;;5.00;3.10;;;;;;;22.27;60.29;96690.59;5025622;28;20050;-69
2023/06/06 07:50:25;;;;;;;6.15;3.28;;;;;;;22.60;56.19;96697.94;5020877;28;20061;-70
2023/06/06 07:52:51;;;;;;;3.97;2.70;;;;;;;22.04;56.73;96690.81;5024290;28;20056;-68
2023/06/06 07:55:16;;;;;;;18.10;12.15;;;;;;;20.87;58.50;96690.75;5020195;28;20042;-70
2023/06/06 07:57:45;;;;;;;4.53;2.65;;;;;;;22.83;54.02;96685.63;5025040;28;20034;-69
2023/06/06 08:00:12;;;;;;;5.10;2.30;;;;;;;21.67;53.62;96674.34;5019931;28;20043;-69
2023/06/06 08:02:39;;;;;;;7.18;1.90;;;;;;;23.26;49.78;96690.63;5023676;28;20036;-69
2023/06/06 08:05:06;;;;;;;4.88;2.10;;;;;;;22.69;51.54;96681.31;5019558;28;20271;-68
2023/06/06 08:07:34;;;;;;;4.32;2.33;;;;;;;21.25;56.76;96682.63;5023737;28;20452;-68
2023/06/06 08:09:59;;;;;;;8.60;2.72;;;;;;;20.09;60.38;96686.53;5024477;28;20033;-69
2023/06/06 08:12:25;;;;;;;4.18;2.38;;;;;;;20.72;60.38;96682.75;5018559;28;20068;-70
2023/06/06 08:14:50;;;;;;;5.10;2.58;;;;;;;22.25;54.46;96686.63;5024076;28;20068;-69
2023/06/06 08:17:15;;;;;;;4.95;2.40;;;;;;;22.40;52.71;96678.63;5019414;28;20518;-69
2023/06/06 08:19:41;;;;;;;4.70;2.40;;;;;;;23.17;50.75;96676.56;5024287;28;20115;-69
2023/06/06 08:22:06;;;;;;;5.75;2.80;;;;;;;21.60;54.22;96677.34;5018355;28;20037;-69
2023/06/06 08:24:31;;;;;;;4.22;3.00;;;;;;;21.26;54.71;96686.97;5024117;28;20045;-69
2023/06/06 08:26:57;;;;;;;3.88;2.33;;;;;;;21.84;54.55;96679.84;5023519;28;20494;-69
2023/06/06 08:29:23;;;;;;;4.85;2.80;;;;;;;22.12;54.29;96673.44;5018639;28;20068;-69
2023/06/06 08:31:48;;;;;;;6.22;3.17;;;;;;;21.90;53.14;96672.53;5022635;28;20033;-70
2023/06/06 08:34:14;;;;;;;5.75;2.83;;;;;;;22.75;50.89;96670.38;5020145;28;20033;-68
2023/06/06 08:36:40;;;;;;;6.65;3.30;;;;;;;23.64;49.08;96675.72;5024045;28;20045;-69
2023/06/06 08:39:08;;;;;;;8.32;3.40;;;;;;;22.46;50.01;96674.84;5019404;28;20041;-68
2023/06/06 08:41:34;;;;;;;8.73;3.42;;;;;;;22.31;51.10;96677.31;5022534;28;20041;-69
2023/06/06 08:44:03;;;;;;;13.00;3.80;;;;;;;22.14;53.33;96675.78;5023651;28;20368;-69
2023/06/06 08:46:33;;;;;;;7.72;3.67;;;;;;;22.86;52.56;96673.59;5021460;28;20156;-69
2023/06/06 08:49:03;;;;;;;;;;;;;;;23.00;50.30;96675.13;5024158;28;20041;-68
2023/06/06 08:51:29;;;;;;;7.35;3.60;;;;;;;22.20;51.75;96685.19;5021607;28;19913;-69
2023/06/06 08:53:55;;;;;;;5.30;3.15;;;;;;;21.54;54.19;96673.53;5022629;28;20386;-69
2023/06/06 08:56:22;;;;;;;5.43;2.88;;;;;;;22.30;50.25;96675.72;5017943;28;20498;-70
2023/06/06 08:58:50;;;;;;;7.90;3.25;;;;;;;22.71;49.12;96673.28;5023112;28;20092;-70
2023/06/06 09:01:18;;;;;;;9.50;3.20;;;;;;;21.63;50.84;96681.25;5019826;28;20503;-69
2023/06/06 09:03:45;;;;;;;5.93;3.50;;;;;;;21.00;53.32;96684.03;5022556;28;20053;-69
2023/06/06 09:06:17;;;;;;;6.55;3.50;;;;;;;21.36;52.46;96679.56;5018434;28;20045;-69
2023/06/06 09:08:43;;;;;;;9.75;3.88;;;;;;;21.10;52.93;96678.63;5024277;28;20406;-69
2023/06/06 09:11:09;;;;;;;5.40;3.55;;;;;;;22.27;50.79;96673.03;5018549;28;20371;-69
2023/06/06 09:13:34;;;;;;;6.10;3.22;;;;;;;22.86;48.84;96665.19;5022882;28;20041;-69
2023/06/06 09:16:00;;;;;;;5.60;3.22;;;;;;;22.23;49.75;96669.56;5023021;28;20117;-70
2023/06/06 09:18:29;;;;;;;9.90;3.40;;;;;;;22.28;49.07;96664.22;5019164;28;20042;-69
2023/06/06 09:20:55;;;;;;;5.37;3.17;;;;;;;22.29;50.72;96662.22;5023335;28;20064;-69
2023/06/06 09:23:21;;;;;;;5.15;2.97;;;;;;;21.82;49.04;96662.78;5018460;28;20052;-69
2023/06/06 09:25:47;;;;;;;6.90;2.80;;;;;;;22.40;50.51;96667.47;5023492;28;20045;-69
2023/06/06 09:28:13;;;;;;;4.40;3.05;;;;;;;22.51;48.52;96659.56;5018255;28;20471;-69
2023/06/06 09:30:38;;;;;;;7.25;4.18;;;;;;;21.79;50.21;96669.25;5023020;28;20045;-69
2023/06/06 09:33:04;;;;;;;7.15;3.30;;;;;;;22.45;47.63;96664.13;5018137;28;20124;-69
2023/06/06 09:35:40;;;;;;;5.47;3.03;;;;;;;22.80;45.63;96670.56;5023335;28;20132;-69
2023/06/06 09:38:07;;;;;;;5.43;3.25;;;;;;;22.44;45.50;96668.16;5017495;28;20041;-69
2023/06/06 09:40:33;;;;;;;5.65;3.30;;;;;;;22.35;47.33;96668.81;5022351;28;20372;-70
2023/06/06 09:42:59;;;;;;;4.20;2.80;;;;;;;21.94;45.73;96659.25;5021727;28;20110;-69
2023/06/06 09:45:24;;;;;;;5.90;3.13;;;;;;;22.20;43.73;96660.09;5018116;28;20046;-69
2023/06/06 09:47:50;;;;;;;7.03;3.03;;;;;;;22.80;43.54;96661.44;5022202;28;20128;-69
2023/06/06 09:50:18;;;;;;;6.88;3.00;;;;;;;22.37;43.47;96660.78;5017352;28;20103;-69
2023/06/06 09:52:44;;;;;;;7.90;3.40;;;;;;;21.79;45.28;96658.91;5022107;28;20079;-69
2023/06/06 09:55:12;;;;;;;5.32;2.85;;;;;;;21.86;46.22;96652.31;5017692;28;20152;-69
2023/06/06 09:57:40;;;;;;;5.73;3.30;;;;;;;21.92;45.55;96654.13;5022447;28;20136;-69
2023/06/06 10:00:09;;;;;;;6.78;2.70;;;;;;;21.82;45.42;96654.44;5017614;28;20048;-69
2023/06/06 10:02:42;;;;;;;4.32;2.70;;;;;;;22.29;44.96;96651.84;5022537;28;20625;-70
2023/06/06 10:05:10;;;;;;;4.57;2.53;;;;;;;22.40;41.43;96657.09;5017586;28;20048;-69
2023/06/06 10:07:38;;;;;;;9.32;3.45;;;;;;;22.49;43.97;96650.81;5022462;28;20049;-70
2023/06/06 10:10:05;;;;;;;7.35;3.40;;;;;;;22.40;43.13;96659.09;5019175;28;20128;-69
2023/06/06 10:12:31;;;;;;;4.60;2.53;;;;;;;23.19;42.33;96660.13;5022200;28;20049;-69
2023/06/06 10:14:57;;;;;;;7.45;2.92;;;;;;;22.38;41.27;96653.97;5022044;28;20060;-69
2023/06/06 10:17:27;;;;;;;6.82;2.70;;;;;;;22.55;41.70;96657.44;5016638;28;20731;-69
2023/06/06 10:19:55;;;;;;;;;;;;;;;21.84;42.58;96649.19;5022536;28;20042;-69
2023/06/06 10:22:21;;;;;;;4.20;2.67;;;;;;;22.59;42.87;96643.34;5017096;28;19923;-69
2023/06/06 10:24:47;;;;;;;6.40;3.10;;;;;;;22.56;42.55;96644.25;5022560;28;20063;-69
2023/06/06 10:27:24;;;;;;;8.27;2.90;;;;;;;22.39;43.56;96649.94;5017627;28;20040;-68
2023/06/06 10:30:09;;;;;;;5.10;3.00;;;;;;;22.61;43.40;96644.47;5022397;28;20048;-68
2023/06/06 10:32:48;;;;;;;8.00;2.38;;;;;;;22.92;42.47;96643.84;5020572;28;20107;-68
2023/06/06 10:35:15;;;;;;;4.07;2.72;;;;;;;23.32;37.98;96648.13;5016705;28;20642;-69
2023/06/06 10:37:41;;;;;;;5.75;3.25;;;;;;;22.83;39.96;96650.16;5022032;28;20142;-68
2023/06/06 10:40:10;;;;;;;5.43;2.85;;;;;;;24.17;40.94;96644.22;5016104;28;20049;-68
2023/06/06 10:42:39;;;;;;;4.47;2.88;;;;;;;23.92;38.67;96650.75;5035108;28;20056;-68
2023/06/06 10:45:09;;;;;;;4.72;2.55;;;;;;;23.18;38.96;96647.38;5015915;28;20042;-68
2023/06/06 10:47:37;;;;;;;;;;;;;;;22.67;40.33;96650.25;5022377;28;20068;-70
2023/06/06 10:50:03;;;;;;;4.93;2.83;;;;;;;22.41;43.30;96638.34;5021007;28;19920;-69
2023/06/06 10:52:28;;;;;;;4.57;2.78;;;;;;;23.07;41.12;96642.16;5021240;28;20046;-69
2023/06/06 10:54:57;;;;;;;6.90;2.90;;;;;;;22.74;39.51;96632.50;5022107;28;20041;-69
2023/06/06 10:57:23;;;;;;;6.70;3.22;;;;;;;22.67;40.79;96633.50;5017625;28;20126;-70
2023/06/06 10:59:50;;;;;;;5.57;3.10;;;;;;;22.59;41.96;96630.16;5020862;28;20053;-70
2023/06/06 11:02:34;;;;;;;6.28;3.13;;;;;;;22.97;41.55;96623.72;5016799;28;20583;-69
2023/06/06 11:04:59;;;;;;;5.15;3.10;;;;;;;22.58;42.01;96622.25;5021348;28;20080;-68
2023/06/06 11:07:27;;;;;;;6.00;2.75;;;;;;;22.73;40.07;96628.94;5017012;28;20038;-68
2023/06/06 11:09:54;;;;;;;6.13;3.05;;;;;;;22.82;39.45;96619.88;5021266;28;20390;-69
2023/06/06 11:12:20;;;;;;;5.55;2.80;;;;;;;23.76;38.62;96628.56;5016642;28;20033;-68
2023/06/06 11:14:58;;;;;;;4.82;3.10;;;;;;;23.21;37.76;96628.94;5021071;28;20053;-70
2023/06/06 11:17:27;;;;;;;5.78;2.88;;;;;;;23.65;36.94;96623.38;5016103;28;20042;-68
2023/06/06 11:19:56;;;;;;;4.43;2.90;;;;;;;23.76;36.60;96625.78;5021001;28;20046;-68
2023/06/06 11:22:25;;;;;;;;;;;;;;;23.42;37.79;96622.59;5016874;28;20340;-70
2023/06/06 11:24:51;;;;;;;7.43;2.72;;;;;;;23.51;36.66;96621.09;5021176;28;19917;-70
2023/06/06 11:27:17;;;;;;;5.35;3.00;;;;;;;23.87;34.68;96626.19;5016554;28;20337;-69
2023/06/06 11:29:45;;;;;;;5.80;2.55;;;;;;;24.19;33.96;96619.34;5020773;28;20104;-74